createdAt,value
2019-02-12T00:00:28.827Z,72.21
2019-02-12T00:02:57.698Z,72.66
2019-02-12T00:05:26.548Z,72.57
2019-02-12T00:07:55.419Z,72.71
2019-02-12T00:10:24.283Z,72.66
2019-02-12T00:12:53.142Z,72.56
2019-02-12T00:15:22.009Z,72.76
2019-02-12T00:17:50.878Z,72.36
2019-02-12T00:20:19.728Z,72.58
2019-02-12T00:22:48.633Z,72.54
2019-02-12T00:25:17.501Z,72.82
2019-02-12T00:27:46.386Z,73.00
2019-02-12T00:30:15.261Z,72.84
2019-02-12T00:32:44.124Z,73.48
2019-02-12T00:35:12.992Z,74.08
2019-02-12T00:37:41.884Z,74.28
2019-02-12T00:40:10.983Z,74.63
2019-02-12T00:42:39.854Z,74.88
2019-02-12T00:45:10.505Z,75.15
2019-02-12T00:47:39.359Z,75.42
2019-02-12T00:50:11.740Z,75.73
2019-02-12T00:52:40.600Z,76.24
2019-02-12T00:55:09.896Z,76.25
2019-02-12T00:57:38.761Z,76.17
2019-02-12T01:00:14.710Z,76.38
2019-02-12T01:02:43.593Z,76.74
2019-02-12T01:05:13.014Z,76.95
2019-02-12T01:07:41.847Z,77.25
2019-02-12T01:10:11.604Z,77.68
2019-02-12T01:12:40.501Z,77.80
2019-02-12T01:15:12.302Z,78.14
2019-02-12T01:17:41.159Z,78.27
2019-02-12T01:20:12.366Z,78.28
2019-02-12T01:22:41.204Z,78.64
2019-02-12T01:25:10.150Z,78.64
2019-02-12T01:27:39.035Z,78.80
2019-02-12T01:30:17.040Z,78.48
2019-02-12T01:32:46.058Z,78.55
2019-02-12T01:35:14.909Z,78.75
2019-02-12T01:37:43.787Z,78.66
2019-02-12T01:40:13.151Z,78.72
2019-02-12T01:42:41.996Z,78.41
2019-02-12T01:45:12.107Z,78.36
2019-02-12T01:47:40.996Z,78.30
2019-02-12T01:50:11.773Z,78.18
2019-02-12T01:52:40.636Z,78.25
2019-02-12T01:55:09.497Z,77.97
2019-02-12T01:57:38.348Z,77.70
2019-02-12T02:00:10.418Z,77.69
2019-02-12T02:02:39.282Z,77.71
2019-02-12T02:05:09.663Z,77.63
2019-02-12T02:07:38.554Z,77.51
2019-02-12T02:10:10.382Z,77.37
2019-02-12T02:12:39.248Z,77.43
2019-02-12T02:15:10.742Z,77.22
2019-02-12T02:17:39.598Z,76.99
2019-02-12T02:20:10.985Z,76.57
2019-02-12T02:22:39.885Z,76.76
2019-02-12T02:25:11.085Z,75.99
2019-02-12T02:27:39.975Z,75.38
2019-02-12T02:30:16.325Z,75.21
2019-02-12T02:32:45.339Z,75.27
2019-02-12T02:35:14.205Z,74.84
2019-02-12T02:37:43.071Z,75.11
2019-02-12T02:40:11.960Z,75.57
2019-02-12T02:42:40.800Z,75.80
2019-02-12T02:45:12.098Z,76.22
2019-02-12T02:47:40.972Z,76.44
2019-02-12T02:50:10.665Z,76.57
2019-02-12T02:52:39.530Z,76.54
2019-02-12T02:55:09.413Z,76.82
2019-02-12T02:57:38.313Z,77.08
2019-02-12T03:00:09.610Z,77.23
2019-02-12T03:02:38.483Z,77.11
2019-02-12T03:05:09.880Z,77.65
2019-02-12T03:07:38.733Z,78.13
2019-02-12T03:10:09.421Z,78.41
2019-02-12T03:12:38.300Z,78.27
2019-02-12T03:15:09.627Z,78.56
2019-02-12T03:17:38.475Z,78.62
2019-02-12T03:20:11.864Z,78.78
2019-02-12T03:22:40.707Z,79.34
2019-02-12T03:25:10.520Z,79.27
2019-02-12T03:27:39.560Z,79.56
2019-02-12T03:30:11.045Z,79.78
2019-02-12T03:32:39.918Z,80.03
2019-02-12T03:35:10.405Z,80.12
2019-02-12T03:37:39.261Z,80.24
2019-02-12T03:40:10.543Z,80.43
2019-02-12T03:42:39.852Z,80.62
2019-02-12T03:45:11.431Z,80.84
2019-02-12T03:47:40.299Z,80.82
2019-02-12T03:50:11.460Z,80.97
2019-02-12T03:52:40.275Z,81.00
2019-02-12T03:55:11.839Z,81.22
2019-02-12T03:57:40.877Z,80.87
2019-02-12T04:00:14.973Z,80.51
2019-02-12T04:03:04.223Z,80.62
2019-02-12T04:05:33.638Z,80.48
2019-02-12T04:08:02.824Z,80.57
2019-02-12T04:10:31.699Z,80.46
2019-02-12T04:13:00.599Z,80.64
2019-02-12T04:15:29.448Z,80.92
2019-02-12T04:17:58.349Z,80.97
2019-02-12T04:20:27.222Z,81.41
2019-02-12T04:22:56.062Z,81.23
2019-02-12T04:25:24.914Z,80.92
2019-02-12T04:27:55.374Z,81.08
2019-02-12T04:30:24.538Z,81.39
2019-02-12T04:32:53.387Z,81.51
2019-02-12T04:35:22.304Z,81.66
2019-02-12T04:37:51.179Z,81.20
2019-02-12T04:40:20.043Z,81.13
2019-02-12T04:42:48.912Z,81.37
2019-02-12T04:45:17.756Z,81.36
2019-02-12T04:47:46.627Z,81.38
2019-02-12T04:50:15.977Z,81.24
2019-02-12T04:52:44.835Z,81.16
2019-02-12T04:55:13.866Z,81.20
2019-02-12T04:57:42.733Z,81.27
2019-02-12T05:00:14.396Z,80.98
2019-02-12T05:02:43.256Z,81.11
2019-02-12T05:05:12.279Z,81.36
2019-02-12T05:07:41.149Z,81.65
2019-02-12T05:10:18.966Z,81.69
2019-02-12T05:12:47.834Z,81.62
2019-02-12T05:15:16.697Z,81.58
2019-02-12T05:17:45.551Z,81.57
2019-02-12T05:20:15.003Z,81.59
2019-02-12T05:22:44.077Z,81.75
2019-02-12T05:25:13.804Z,82.01
2019-02-12T05:27:42.638Z,82.21
2019-02-12T05:30:13.421Z,82.21
2019-02-12T05:32:42.287Z,82.35
2019-02-12T05:35:11.143Z,82.24
2019-02-12T05:37:39.996Z,82.22
2019-02-12T05:40:11.915Z,82.42
2019-02-12T05:42:40.792Z,82.64
2019-02-12T05:45:13.710Z,83.00
2019-02-12T05:47:42.571Z,83.15
2019-02-12T05:50:13.366Z,83.38
2019-02-12T05:52:42.344Z,83.16
2019-02-12T05:55:11.259Z,83.20
2019-02-12T05:57:40.100Z,83.02
2019-02-12T06:00:16.233Z,82.73
2019-02-12T06:02:45.083Z,82.86
2019-02-12T06:05:30.996Z,82.92
2019-02-12T06:07:59.850Z,82.89
2019-02-12T06:10:28.748Z,83.10
2019-02-12T06:12:57.618Z,83.15
2019-02-12T06:15:26.477Z,83.00
2019-02-12T06:17:55.337Z,82.87
2019-02-12T06:20:24.191Z,82.96
2019-02-12T06:22:53.054Z,82.30
2019-02-12T06:25:21.960Z,82.49
2019-02-12T06:27:50.798Z,82.33
2019-02-12T06:30:19.692Z,82.33
2019-02-12T06:32:48.625Z,82.50
2019-02-12T06:35:17.470Z,82.59
2019-02-12T06:37:46.344Z,82.57
2019-02-12T06:40:15.240Z,82.50
2019-02-12T06:42:44.106Z,82.49
2019-02-12T06:45:13.985Z,82.02
2019-02-12T06:47:42.818Z,81.96
2019-02-12T06:50:12.816Z,81.58
2019-02-12T06:52:41.672Z,81.59
2019-02-12T06:55:11.486Z,81.32
2019-02-12T06:57:40.354Z,81.16
2019-02-12T07:00:13.547Z,80.39
2019-02-12T07:03:11.373Z,80.05
2019-02-12T07:05:45.990Z,79.98
2019-02-12T07:08:42.398Z,80.04
2019-02-12T07:11:14.331Z,80.66
2019-02-12T07:13:46.233Z,80.32
2019-02-12T07:16:18.151Z,80.18
2019-02-12T07:19:02.126Z,80.14
2019-02-12T07:21:45.906Z,79.78
2019-02-12T07:24:33.155Z,79.84
2019-02-12T07:27:23.392Z,79.92
2019-02-12T07:30:12.200Z,79.94
2019-02-12T07:32:59.211Z,80.06
2019-02-12T07:35:52.006Z,79.85
2019-02-12T07:38:52.443Z,80.13
2019-02-12T07:41:42.382Z,81.39
2019-02-12T07:44:48.944Z,81.02
2019-02-12T07:47:37.279Z,80.46
2019-02-12T07:50:38.916Z,79.74
2019-02-12T07:53:19.704Z,79.89
2019-02-12T07:55:51.603Z,79.21
2019-02-12T07:58:38.297Z,79.24
2019-02-12T08:01:35.748Z,78.73
2019-02-12T08:04:19.650Z,78.57
2019-02-12T08:06:57.220Z,78.62
2019-02-12T08:09:47.400Z,78.78
2019-02-12T08:12:45.087Z,78.36
2019-02-12T08:15:25.997Z,78.50
2019-02-12T08:18:00.396Z,77.37
2019-02-12T08:20:47.388Z,77.87
2019-02-12T08:23:42.115Z,77.66
2019-02-12T08:26:14.050Z,77.70
2019-02-12T08:29:13.251Z,77.60
2019-02-12T08:31:50.918Z,77.89
2019-02-12T08:34:25.763Z,77.72
2019-02-12T08:37:06.548Z,77.75
2019-02-12T08:39:41.199Z,77.75
2019-02-12T08:42:22.105Z,77.33
2019-02-12T08:45:10.879Z,76.92
2019-02-12T08:47:54.838Z,76.99
2019-02-12T08:50:26.756Z,76.29
2019-02-12T08:53:22.615Z,75.84
2019-02-12T08:56:12.676Z,75.82
2019-02-12T08:58:56.631Z,76.23
2019-02-12T09:01:31.371Z,76.36
2019-02-12T09:04:11.958Z,76.19
2019-02-12T09:06:43.897Z,75.68
2019-02-12T09:09:36.652Z,75.58
2019-02-12T09:12:17.318Z,75.75
2019-02-12T09:15:08.301Z,75.67
2019-02-12T09:17:51.965Z,75.73
2019-02-12T09:20:38.959Z,75.25
2019-02-12T09:23:22.406Z,75.38
2019-02-12T09:25:54.312Z,74.87
2019-02-12T09:28:32.206Z,74.79
2019-02-12T09:31:12.701Z,73.58
2019-02-12T09:33:50.286Z,73.54
2019-02-12T09:36:30.995Z,73.35
2019-02-12T09:39:17.993Z,72.83
2019-02-12T09:41:58.612Z,73.04
2019-02-12T09:44:50.080Z,72.54
2019-02-12T09:47:41.584Z,72.88
2019-02-12T09:50:19.575Z,72.48
2019-02-12T09:53:15.628Z,71.47
2019-02-12T09:56:11.931Z,72.58
2019-02-12T09:59:08.248Z,71.07
2019-02-12T10:01:42.740Z,69.91
2019-02-12T10:04:38.628Z,68.39
2019-02-12T10:07:39.305Z,68.01
2019-02-12T10:10:20.008Z,67.18
2019-02-12T10:13:12.896Z,65.85
2019-02-12T10:16:10.348Z,64.34
2019-02-12T10:18:50.571Z,63.50
2019-02-12T10:21:37.266Z,64.27
2019-02-12T10:24:19.788Z,64.79
2019-02-12T10:26:50.770Z,64.23
2019-02-12T10:29:31.262Z,63.41
2019-02-12T10:32:08.234Z,63.45
2019-02-12T10:34:29.595Z,63.41
2019-02-12T10:36:58.479Z,63.41
2019-02-12T10:39:27.324Z,64.06
2019-02-12T10:41:56.178Z,64.24
2019-02-12T10:44:25.076Z,63.68
2019-02-12T10:46:53.913Z,63.58
2019-02-12T10:49:22.798Z,62.28
2019-02-12T10:51:51.667Z,61.47
2019-02-12T10:54:27.735Z,61.66
2019-02-12T10:56:51.731Z,61.47
2019-02-12T10:59:20.641Z,61.54
2019-02-12T11:01:49.540Z,62.39
2019-02-12T11:04:18.382Z,62.62
2019-02-12T11:06:47.237Z,62.64
2019-02-12T11:09:16.098Z,61.59
2019-02-12T11:11:44.949Z,61.04
2019-02-12T11:14:13.837Z,60.88
2019-02-12T11:16:42.695Z,61.03
2019-02-12T11:19:11.565Z,60.47
2019-02-12T11:21:40.439Z,60.25
2019-02-12T11:24:09.320Z,59.68
2019-02-12T11:26:38.166Z,58.18
2019-02-12T11:29:07.033Z,57.99
2019-02-12T11:31:35.881Z,57.65
2019-02-12T11:34:04.750Z,57.60
2019-02-12T11:36:33.629Z,57.55
2019-02-12T11:39:02.497Z,56.80
2019-02-12T11:41:31.377Z,55.67
2019-02-12T11:44:00.247Z,55.59
2019-02-12T11:46:29.099Z,56.14
2019-02-12T11:48:57.975Z,54.86
2019-02-12T11:51:26.844Z,53.66
2019-02-12T11:53:55.710Z,53.91
2019-02-12T11:56:24.552Z,54.62
2019-02-12T11:58:53.421Z,55.30
2019-02-12T12:01:23.755Z,55.30
2019-02-12T12:03:52.640Z,55.08
2019-02-12T12:06:21.475Z,54.15
2019-02-12T12:08:50.344Z,54.15
2019-02-12T12:11:19.263Z,54.41
2019-02-12T12:13:48.122Z,54.34
2019-02-12T12:16:17.027Z,55.96
2019-02-12T12:18:45.906Z,57.03
2019-02-12T12:21:14.768Z,57.45
2019-02-12T12:23:43.634Z,57.42
2019-02-12T12:26:12.493Z,56.81
2019-02-12T12:28:41.384Z,56.71
2019-02-12T12:31:10.247Z,56.20
2019-02-12T12:33:39.108Z,56.69
2019-02-12T12:36:07.996Z,55.59
2019-02-12T12:38:36.858Z,54.94
2019-02-12T12:41:05.711Z,54.51
2019-02-12T12:43:34.583Z,54.91
2019-02-12T12:46:03.453Z,55.18
2019-02-12T12:48:32.303Z,55.28
2019-02-12T12:51:01.194Z,54.87
2019-02-12T12:53:30.033Z,53.95
2019-02-12T12:55:58.917Z,53.13
2019-02-12T12:58:27.753Z,53.99
2019-02-12T13:00:56.381Z,55.43
2019-02-12T13:03:24.920Z,55.44
2019-02-12T13:05:53.473Z,53.13
2019-02-12T13:08:22.346Z,53.76
2019-02-12T13:10:52.620Z,53.95
2019-02-12T13:13:21.203Z,52.77
2019-02-12T13:15:49.776Z,53.43
2019-02-12T13:18:18.631Z,54.66
2019-02-12T13:20:47.506Z,55.32
2019-02-12T13:23:16.355Z,55.38
2019-02-12T13:25:45.231Z,55.44
2019-02-12T13:28:14.105Z,55.29
2019-02-12T13:30:42.965Z,55.18
2019-02-12T13:33:11.843Z,55.18
2019-02-12T13:35:40.749Z,54.84
2019-02-12T13:38:09.599Z,55.16
2019-02-12T13:40:38.467Z,55.60
2019-02-12T13:43:07.368Z,55.74
2019-02-12T13:45:36.210Z,55.58
2019-02-12T13:48:05.067Z,55.83
2019-02-12T13:50:33.944Z,56.01
2019-02-12T13:53:02.786Z,56.56
2019-02-12T13:55:31.673Z,56.55
2019-02-12T13:58:00.537Z,56.58
2019-02-12T14:00:29.406Z,56.43
2019-02-12T14:02:58.300Z,56.60
2019-02-12T14:05:27.187Z,55.99
2019-02-12T14:07:56.018Z,55.11
2019-02-12T14:10:24.929Z,53.61
2019-02-12T14:12:53.784Z,53.61
2019-02-12T14:15:22.700Z,53.64
2019-02-12T14:17:51.554Z,53.16
2019-02-12T14:20:20.422Z,53.16
2019-02-12T14:22:49.296Z,53.36
2019-02-12T14:25:25.307Z,53.36
2019-02-12T14:27:48.744Z,53.92
2019-02-12T14:30:19.289Z,53.85
2019-02-12T14:32:48.150Z,54.25
2019-02-12T14:35:17.031Z,54.63
2019-02-12T14:37:45.923Z,54.67
2019-02-12T14:40:16.118Z,54.98
2019-02-12T14:42:45.013Z,55.15
2019-02-12T14:45:16.327Z,54.99
2019-02-12T14:47:45.203Z,54.43
2019-02-12T14:50:15.625Z,54.73
2019-02-12T14:52:44.491Z,54.38
2019-02-12T14:55:13.408Z,55.10
2019-02-12T14:57:42.268Z,55.10
2019-02-12T15:00:13.946Z,54.90
2019-02-12T15:02:42.822Z,54.58
2019-02-12T15:05:11.684Z,54.42
2019-02-12T15:07:40.631Z,52.58
2019-02-12T15:10:11.729Z,52.94
2019-02-12T15:12:40.590Z,53.72
2019-02-12T15:15:10.602Z,54.29
2019-02-12T15:17:39.548Z,54.89
2019-02-12T15:20:13.026Z,55.63
2019-02-12T15:22:41.901Z,55.85
2019-02-12T15:25:13.143Z,55.76
2019-02-12T15:27:42.071Z,56.24
2019-02-12T15:30:18.951Z,56.37
2019-02-12T15:32:47.799Z,56.53
2019-02-12T15:35:16.647Z,56.69
2019-02-12T15:37:45.535Z,56.77
2019-02-12T15:40:15.977Z,56.81
2019-02-12T15:42:44.813Z,56.70
2019-02-12T15:45:16.440Z,57.39
2019-02-12T15:47:45.338Z,56.93
2019-02-12T15:50:14.193Z,57.12
2019-02-12T15:52:43.062Z,56.64
2019-02-12T15:55:15.963Z,57.27
2019-02-12T15:57:45.900Z,57.29
2019-02-12T16:00:20.669Z,56.86
2019-02-12T16:02:49.775Z,57.15
2019-02-12T16:05:18.702Z,56.84
2019-02-12T16:07:47.856Z,57.03
2019-02-12T16:10:19.671Z,57.48
2019-02-12T16:12:51.264Z,57.92
2019-02-12T16:15:22.307Z,58.28
2019-02-12T16:17:51.072Z,58.45
2019-02-12T16:20:19.929Z,58.73
2019-02-12T16:22:48.828Z,58.97
2019-02-12T16:25:17.727Z,59.70
2019-02-12T16:27:46.592Z,59.56
2019-02-12T16:30:22.039Z,59.08
2019-02-12T16:32:50.904Z,58.80
2019-02-12T16:35:19.768Z,59.02
2019-02-12T16:37:48.649Z,59.83
2019-02-12T16:40:20.502Z,59.73
2019-02-12T16:42:49.360Z,59.36
2019-02-12T16:45:37.924Z,59.85
2019-02-12T16:48:06.792Z,59.76
2019-02-12T16:50:35.684Z,59.33
2019-02-12T16:53:04.527Z,59.13
2019-02-12T16:55:33.404Z,59.39
2019-02-12T16:58:02.283Z,59.30
2019-02-12T17:00:31.133Z,59.49
2019-02-12T17:03:00.041Z,59.37
2019-02-12T17:05:28.884Z,59.64
2019-02-12T17:07:57.752Z,59.30
2019-02-12T17:10:26.641Z,59.04
2019-02-12T17:12:55.513Z,59.40
2019-02-12T17:15:24.369Z,59.57
2019-02-12T17:17:53.252Z,59.54
2019-02-12T17:20:23.567Z,60.37
2019-02-12T17:22:52.408Z,59.80
2019-02-12T17:25:21.314Z,60.58
2019-02-12T17:27:50.189Z,59.86
2019-02-12T17:30:19.220Z,60.04
2019-02-12T17:32:48.097Z,60.43
2019-02-12T17:35:16.965Z,59.63
2019-02-12T17:37:45.831Z,60.43
2019-02-12T17:40:18.802Z,59.83
2019-02-12T17:42:47.653Z,60.29
2019-02-12T17:45:18.131Z,60.31
2019-02-12T17:47:46.978Z,61.42
2019-02-12T17:50:16.239Z,60.86
2019-02-12T17:52:45.121Z,60.54
2019-02-12T17:55:13.999Z,60.51
2019-02-12T17:57:43.027Z,60.71
2019-02-12T18:00:19.185Z,60.82
2019-02-12T18:02:48.068Z,61.04
2019-02-12T18:05:16.973Z,61.84
2019-02-12T18:07:45.853Z,62.34
2019-02-12T18:10:14.729Z,62.76
2019-02-12T18:12:43.627Z,63.20
2019-02-12T18:15:14.007Z,63.48
2019-02-12T18:17:42.909Z,63.38
2019-02-12T18:20:16.405Z,63.71
2019-02-12T18:22:45.287Z,64.03
2019-02-12T18:25:14.268Z,64.25
2019-02-12T18:27:43.129Z,64.26
2019-02-12T18:30:16.478Z,64.64
2019-02-12T18:32:45.349Z,65.37
2019-02-12T18:35:14.472Z,64.86
2019-02-12T18:37:43.357Z,64.87
2019-02-12T18:40:14.025Z,65.25
2019-02-12T18:42:42.906Z,65.20
2019-02-12T18:45:14.656Z,65.04
2019-02-12T18:47:43.587Z,65.68
2019-02-12T18:50:13.042Z,66.34
2019-02-12T18:52:41.929Z,66.74
2019-02-12T18:55:15.417Z,67.01
2019-02-12T18:57:44.295Z,67.09
2019-02-12T19:00:15.836Z,67.20
2019-02-12T19:02:44.725Z,66.67
2019-02-12T19:05:13.589Z,66.11
2019-02-12T19:07:43.024Z,65.50
2019-02-12T19:10:13.853Z,65.70
2019-02-12T19:12:42.752Z,66.09
2019-02-12T19:15:16.640Z,66.15
2019-02-12T19:17:48.719Z,66.44
2019-02-12T19:20:17.604Z,66.35
2019-02-12T19:22:46.476Z,66.64
2019-02-12T19:25:15.583Z,66.41
2019-02-12T19:27:44.433Z,65.92
2019-02-12T19:30:17.271Z,66.31
2019-02-12T19:32:46.125Z,66.01
2019-02-12T19:35:15.000Z,66.59
2019-02-12T19:37:43.905Z,66.38
2019-02-12T19:40:13.327Z,66.27
2019-02-12T19:42:42.213Z,66.65
2019-02-12T19:45:15.181Z,66.50
2019-02-12T19:47:44.052Z,66.60
2019-02-12T19:50:13.286Z,66.69
2019-02-12T19:52:42.186Z,66.71
2019-02-12T19:55:11.461Z,66.94
2019-02-12T19:57:40.331Z,67.53
2019-02-12T20:00:19.337Z,67.83
2019-02-12T20:02:49.173Z,68.34
2019-02-12T20:05:18.241Z,68.20
2019-02-12T20:07:47.109Z,68.04
2019-02-12T20:10:16.127Z,68.58
2019-02-12T20:12:45.056Z,68.42
2019-02-12T20:15:23.341Z,68.33
2019-02-12T20:17:52.282Z,68.39
2019-02-12T20:20:23.317Z,68.20
2019-02-12T20:22:52.175Z,68.39
2019-02-12T20:25:21.450Z,68.87
2019-02-12T20:27:50.308Z,68.76
2019-02-12T20:30:19.998Z,68.66
2019-02-12T20:32:49.342Z,68.64
2019-02-12T20:35:22.643Z,69.36
2019-02-12T20:37:51.630Z,69.42
2019-02-12T20:40:20.509Z,69.71
2019-02-12T20:42:49.376Z,69.42
2019-02-12T20:45:19.227Z,69.17
2019-02-12T20:47:48.252Z,69.52
2019-02-12T20:50:21.110Z,70.29
2019-02-12T20:52:49.990Z,70.00
2019-02-12T20:55:18.873Z,70.41
2019-02-12T20:57:48.633Z,70.51
2019-02-12T21:00:22.633Z,70.17
2019-02-12T21:02:51.521Z,70.45
2019-02-12T21:05:20.393Z,70.82
2019-02-12T21:07:49.271Z,71.22
2019-02-12T21:10:20.378Z,71.24
2019-02-12T21:12:49.271Z,71.30
2019-02-12T21:15:25.837Z,71.16
2019-02-12T21:17:55.041Z,71.48
2019-02-12T21:20:23.914Z,71.55
2019-02-12T21:22:52.812Z,71.51
2019-02-12T21:25:21.672Z,71.53
2019-02-12T21:27:50.570Z,72.32
2019-02-12T21:30:24.789Z,72.60
2019-02-12T21:32:53.655Z,72.29
2019-02-12T21:35:22.542Z,72.14
2019-02-12T21:37:51.436Z,72.66
2019-02-12T21:40:28.207Z,73.34
2019-02-12T21:42:57.068Z,73.21
2019-02-12T21:45:25.978Z,73.48
2019-02-12T21:47:54.868Z,73.35
2019-02-12T21:50:23.737Z,73.94
2019-02-12T21:52:52.635Z,74.06
2019-02-12T21:55:22.168Z,74.24
2019-02-12T21:57:51.063Z,74.41
2019-02-12T22:00:23.209Z,74.55
2019-02-12T22:02:52.066Z,74.78
2019-02-12T22:05:20.937Z,75.00
2019-02-12T22:07:49.841Z,74.21
2019-02-12T22:10:24.243Z,74.03
2019-02-12T22:12:54.305Z,73.96
2019-02-12T22:15:23.206Z,74.86
2019-02-12T22:17:52.090Z,74.96
2019-02-12T22:20:21.751Z,75.44
2019-02-12T22:22:50.639Z,75.31
2019-02-12T22:25:19.584Z,75.76
2019-02-12T22:27:48.464Z,75.19
2019-02-12T22:30:19.546Z,75.60
2019-02-12T22:32:48.412Z,75.66
2019-02-12T22:35:17.257Z,76.00
2019-02-12T22:37:46.145Z,76.28
2019-02-12T22:40:18.650Z,76.17
2019-02-12T22:42:47.511Z,76.11
2019-02-12T22:45:22.122Z,76.48
2019-02-12T22:47:50.991Z,76.60
2019-02-12T22:50:19.960Z,76.83
2019-02-12T22:52:48.835Z,77.29
2019-02-12T22:55:17.719Z,78.01
2019-02-12T22:57:49.353Z,78.45
2019-02-12T23:00:48.548Z,78.75
2019-02-12T23:03:17.488Z,79.27
2019-02-12T23:05:47.487Z,80.07
2019-02-12T23:08:16.359Z,80.34
2019-02-12T23:10:45.243Z,81.30
2019-02-12T23:13:14.113Z,81.11
2019-02-12T23:15:43.031Z,81.05
2019-02-12T23:18:11.864Z,81.56
2019-02-12T23:20:40.748Z,81.45
2019-02-12T23:23:09.599Z,81.31
2019-02-12T23:25:38.455Z,82.05
2019-02-12T23:28:07.331Z,81.47
2019-02-12T23:30:36.282Z,81.33
2019-02-12T23:33:05.329Z,81.81
2019-02-12T23:35:34.158Z,82.00
2019-02-12T23:38:04.055Z,82.61
2019-02-12T23:40:32.923Z,82.60
2019-02-12T23:43:01.777Z,82.73
2019-02-12T23:45:30.642Z,82.88
2019-02-12T23:47:59.519Z,83.12
2019-02-12T23:50:28.426Z,83.18
2019-02-12T23:52:57.325Z,83.90
2019-02-12T23:55:26.168Z,84.34
2019-02-12T23:57:55.061Z,85.06
